Time;durP1;ratioP1;P1;durP2;ratioP2;P2;SDS_P1;SDS_P2;PMS_P1;PMS_P2;Temp;Humidity;BMP_temperature;BMP_pressure;BME280_temperature;BME280_humidity;BME280_pressure;Samples;Min_cycle;Max_cycle;Signal;HPM_P1;HPM_P2
2021/08/04 00:00:55;;;;;;;3.40;2.90;;;23.90;60.10;;;;;;5083082;28;20029;-37
2021/08/04 00:03:21;;;;;;;3.47;3.17;;;24.00;60.30;;;;;;5082868;28;20040;-37
2021/08/04 00:05:48;;;;;;;4.00;3.40;;;24.00;60.60;;;;;;5082996;28;20041;-37
2021/08/04 00:08:14;;;;;;;3.95;3.47;;;24.00;60.80;;;;;;5083180;28;20040;-37
2021/08/04 00:10:40;;;;;;;4.00;3.58;;;24.00;61.10;;;;;;5061990;28;20032;-37
2021/08/04 00:13:06;;;;;;;4.15;3.47;;;24.00;61.30;;;;;;5062898;28;20073;-37
2021/08/04 00:15:32;;;;;;;3.92;3.53;;;24.00;61.50;;;;;;5062563;28;20033;-37
2021/08/04 00:17:58;;;;;;;3.88;3.22;;;24.00;61.80;;;;;;5062837;28;20363;-37
2021/08/04 00:20:24;;;;;;;5.18;3.72;;;24.00;61.90;;;;;;5062542;28;20101;-37
2021/08/04 00:22:50;;;;;;;4.30;3.88;;;24.00;62.10;;;;;;5062512;28;20603;-37
2021/08/04 00:25:17;;;;;;;3.80;3.30;;;24.00;62.20;;;;;;5062782;28;20092;-37
2021/08/04 00:27:43;;;;;;;4.22;3.78;;;24.10;62.50;;;;;;5062827;28;20013;-37
2021/08/04 00:30:09;;;;;;;4.93;3.85;;;24.10;62.70;;;;;;5062487;28;20032;-37
2021/08/04 00:32:36;;;;;;;4.18;3.70;;;24.10;62.80;;;;;;5062378;28;20783;-37
2021/08/04 00:35:02;;;;;;;4.20;3.80;;;24.10;62.90;;;;;;5062469;28;20033;-37
2021/08/04 00:37:28;;;;;;;5.90;3.80;;;24.10;62.90;;;;;;5062426;28;20047;-37
2021/08/04 00:39:54;;;;;;;4.53;3.90;;;24.10;63.00;;;;;;5076090;28;20024;-37
2021/08/04 00:42:20;;;;;;;4.25;3.85;;;24.10;63.20;;;;;;5082168;28;20020;-37
2021/08/04 00:44:47;;;;;;;3.90;3.50;;;24.10;63.40;;;;;;5078447;28;20038;-36
2021/08/04 00:47:13;;;;;;;4.80;4.03;;;24.10;63.50;;;;;;5082451;28;20021;-36
2021/08/04 00:49:40;;;;;;;4.80;4.15;;;24.10;63.60;;;;;;5081014;28;20032;-37
2021/08/04 00:52:06;;;;;;;4.75;3.75;;;24.20;63.80;;;;;;5077645;28;20021;-37
2021/08/04 00:54:32;;;;;;;4.43;4.03;;;24.20;63.90;;;;;;5061295;28;20457;-37
2021/08/04 00:56:58;;;;;;;5.63;4.22;;;24.20;64.00;;;;;;5064867;28;20627;-37
2021/08/04 00:59:24;;;;;;;4.97;4.35;;;24.20;64.00;;;;;;5062256;28;20157;-37
2021/08/04 01:01:56;;;;;;;4.88;4.07;;;24.20;64.00;;;;;;5061839;28;20045;-36
2021/08/04 01:04:36;;;;;;;5.15;4.18;;;24.20;64.00;;;;;;5044873;28;20037;-37
2021/08/04 01:07:04;;;;;;;4.40;4.00;;;24.20;64.10;;;;;;5061011;28;20390;-37
2021/08/04 01:10:00;;;;;;;4.85;4.35;;;24.20;64.10;;;;;;5062057;28;20025;-37
2021/08/04 01:12:31;;;;;;;5.07;4.43;;;24.30;64.10;;;;;;5059971;28;20025;-37
2021/08/04 01:15:00;;;;;;;4.65;4.10;;;24.30;64.10;;;;;;5060439;28;20029;-37
2021/08/04 01:17:26;;;;;;;4.93;4.15;;;24.30;64.20;;;;;;5060696;28;20040;-37
2021/08/04 01:20:03;;;;;;;5.00;4.32;;;24.30;64.20;;;;;;5060823;28;20036;-37
2021/08/04 01:22:56;;;;;;;5.03;4.35;;;24.30;64.30;;;;;;5060308;28;20041;-37
2021/08/04 01:25:25;;;;;;;4.80;4.30;;;24.30;64.40;;;;;;5060677;28;20075;-36
2021/08/04 01:28:20;;;;;;;5.03;4.20;;;24.30;64.40;;;;;;5077930;28;20055;-36
2021/08/04 01:30:48;;;;;;;5.30;4.40;;;24.30;64.50;;;;;;5052158;28;20188;-37
2021/08/04 01:33:14;;;;;;;5.38;4.63;;;24.30;64.50;;;;;;5060300;28;20036;-36
2021/08/04 01:35:41;;;;;;;5.03;4.47;;;24.30;64.60;;;;;;5061848;28;20029;-36
2021/08/04 01:38:08;;;;;;;5.45;4.68;;;24.30;64.60;;;;;;5060425;28;20081;-36
2021/08/04 01:40:34;;;;;;;6.43;4.68;;;24.30;64.60;;;;;;5080920;28;20031;-36
2021/08/04 01:43:00;;;;;;;4.97;4.45;;;24.30;64.60;;;;;;5080227;28;20089;-37
2021/08/04 01:45:26;;;;;;;4.85;4.35;;;24.30;64.60;;;;;;5081659;28;20054;-37
2021/08/04 01:47:53;;;;;;;5.10;4.60;;;24.40;64.70;;;;;;5079268;28;20033;-37
2021/08/04 01:50:19;;;;;;;4.75;4.32;;;24.40;64.70;;;;;;5081885;28;20020;-37
2021/08/04 01:52:45;;;;;;;6.10;5.50;;;24.40;64.70;;;;;;5071523;28;20031;-37
2021/08/04 01:55:12;;;;;;;5.45;4.50;;;24.40;64.80;;;;;;5061571;28;20782;-36
2021/08/04 01:57:39;;;;;;;5.68;4.72;;;24.40;64.80;;;;;;5060437;28;20037;-37
2021/08/04 02:00:05;;;;;;;5.23;4.73;;;24.40;64.80;;;;;;5060385;28;20099;-37
2021/08/04 02:02:32;;;;;;;5.40;4.68;;;24.40;64.80;;;;;;5061327;28;20403;-37
2021/08/04 02:04:58;;;;;;;5.13;4.55;;;24.40;64.80;;;;;;5062752;28;20065;-37
2021/08/04 02:07:45;;;;;;;5.00;4.50;;;24.40;64.90;;;;;;5065224;28;20039;-36
2021/08/04 02:10:14;;;;;;;6.00;4.97;;;24.40;64.90;;;;;;5065354;28;20100;-37
2021/08/04 02:12:48;;;;;;;6.07;5.00;;;24.40;64.90;;;;;;5080628;28;20269;-37
2021/08/04 02:15:15;;;;;;;5.07;4.57;;;24.40;64.90;;;;;;5080953;28;20132;-37
2021/08/04 02:17:48;;;;;;;5.60;4.70;;;24.40;65.00;;;;;;5063648;28;20040;-36
2021/08/04 02:20:22;;;;;;;5.65;5.05;;;24.40;65.00;;;;;;5063711;28;20032;-37
2021/08/04 02:23:04;;;;;;;6.68;5.22;;;24.40;65.00;;;;;;5074045;28;20105;-37
2021/08/04 02:25:45;;;;;;;5.20;4.65;;;24.40;65.00;;;;;;5084988;28;20036;-37
2021/08/04 02:28:18;;;;;;;5.40;4.85;;;24.40;65.00;;;;;;5084935;28;20024;-37
2021/08/04 02:30:44;;;;;;;5.30;4.72;;;24.40;65.00;;;;;;5083599;28;20071;-36
2021/08/04 02:33:10;;;;;;;5.50;4.85;;;24.50;65.10;;;;;;5084768;28;20028;-37
2021/08/04 02:35:36;;;;;;;5.28;4.78;;;24.40;65.00;;;;;;5083709;28;20032;-37
2021/08/04 02:38:02;;;;;;;6.18;4.90;;;24.50;65.10;;;;;;5083481;28;20064;-36
2021/08/04 02:40:28;;;;;;;5.43;4.88;;;24.50;65.10;;;;;;5066536;28;20557;-37
2021/08/04 02:42:55;;;;;;;6.45;4.70;;;24.50;65.10;;;;;;5064394;28;20170;-37
2021/08/04 02:45:22;;;;;;;5.18;4.68;;;24.50;65.10;;;;;;5064552;28;20254;-37
2021/08/04 02:47:48;;;;;;;6.47;5.33;;;24.50;65.10;;;;;;5065795;28;20080;-37
2021/08/04 02:50:14;;;;;;;5.75;5.00;;;24.50;65.10;;;;;;5046784;28;20266;-37
2021/08/04 02:52:41;;;;;;;5.95;5.13;;;24.50;65.10;;;;;;5056008;28;20719;-37
2021/08/04 02:55:08;;;;;;;5.00;4.50;;;24.50;65.20;;;;;;5081049;28;20115;-37
2021/08/04 02:57:34;;;;;;;5.18;4.68;;;24.50;65.20;;;;;;5083187;28;20032;-37
2021/08/04 03:00:00;;;;;;;5.37;4.63;;;24.50;65.20;;;;;;5084178;28;20020;-39
2021/08/04 03:02:26;;;;;;;5.68;5.03;;;24.50;65.20;;;;;;5084383;28;20261;-37
2021/08/04 03:04:53;;;;;;;6.10;5.50;;;24.50;65.20;;;;;;5084034;28;20028;-37
2021/08/04 03:07:19;;;;;;;5.57;4.97;;;24.50;65.20;;;;;;5084351;28;20035;-37
2021/08/04 03:09:45;;;;;;;5.18;4.57;;;24.50;65.20;;;;;;5072166;28;20088;-40
2021/08/04 03:12:11;;;;;;;5.85;5.10;;;24.50;65.20;;;;;;5064038;28;20040;-37
2021/08/04 03:14:37;;;;;;;7.28;5.07;;;24.50;65.30;;;;;;5063814;28;20029;-37
2021/08/04 03:17:03;;;;;;;5.68;4.72;;;24.50;65.30;;;;;;5063144;28;20021;-37
2021/08/04 03:19:29;;;;;;;5.85;5.07;;;24.50;65.20;;;;;;5063952;28;20124;-36
2021/08/04 03:21:56;;;;;;;6.95;5.35;;;24.50;65.30;;;;;;5067174;28;20048;-37
2021/08/04 03:24:22;;;;;;;5.45;4.93;;;24.50;65.40;;;;;;5083723;28;20046;-37
2021/08/04 03:26:48;;;;;;;4.95;4.45;;;24.50;65.40;;;;;;5084084;28;20451;-37
2021/08/04 03:29:24;;;;;;;5.50;4.97;;;24.50;65.30;;;;;;5084027;28;20044;-37
2021/08/04 03:31:51;;;;;;;5.75;5.07;;;24.50;65.40;;;;;;5083805;28;20149;-37
2021/08/04 03:34:17;;;;;;;5.80;4.93;;;24.50;65.40;;;;;;5082384;28;20028;-36
2021/08/04 03:36:43;;;;;;;5.68;5.15;;;24.50;65.50;;;;;;5082245;28;20484;-37
2021/08/04 03:39:09;;;;;;;5.85;5.25;;;24.40;65.40;;;;;;5076693;28;20036;-37
2021/08/04 03:41:35;;;;;;;5.25;4.75;;;24.40;65.40;;;;;;5063463;28;20560;-37
2021/08/04 03:44:01;;;;;;;5.50;4.93;;;24.40;65.50;;;;;;5063320;28;20043;-37
2021/08/04 03:46:28;;;;;;;5.47;4.93;;;24.40;65.50;;;;;;5062071;28;20040;-37
2021/08/04 03:48:54;;;;;;;5.90;5.30;;;24.40;65.50;;;;;;5063651;28;20029;-37
2021/08/04 03:51:20;;;;;;;5.85;5.22;;;24.40;65.60;;;;;;5070624;28;20013;-37
2021/08/04 03:53:46;;;;;;;5.43;4.93;;;24.40;65.70;;;;;;5064765;28;20056;-37
2021/08/04 03:56:12;;;;;;;5.72;5.13;;;24.40;65.60;;;;;;5063352;28;20047;-37
2021/08/04 03:58:38;;;;;;;6.07;5.47;;;24.40;65.70;;;;;;5063295;28;20037;-37
2021/08/04 04:01:04;;;;;;;6.00;5.40;;;24.40;65.80;;;;;;5063272;28;20028;-37
2021/08/04 04:03:30;;;;;;;7.75;5.40;;;24.40;65.90;;;;;;5063128;28;20060;-38
2021/08/04 04:05:57;;;;;;;6.05;5.45;;;24.40;66.00;;;;;;5062968;28;20025;-37
2021/08/04 04:08:23;;;;;;;5.63;5.10;;;24.40;65.90;;;;;;5063160;28;20039;-37
2021/08/04 04:10:49;;;;;;;6.33;5.60;;;24.40;66.00;;;;;;5062767;28;20040;-37
2021/08/04 04:13:16;;;;;;;6.72;5.75;;;24.40;66.00;;;;;;5063137;28;20032;-37
2021/08/04 04:15:42;;;;;;;6.25;5.32;;;24.40;66.00;;;;;;5062646;28;20497;-37
2021/08/04 04:18:08;;;;;;;6.05;5.07;;;24.40;66.10;;;;;;5062794;28;20040;-37
2021/08/04 04:20:34;;;;;;;5.80;5.07;;;24.40;66.10;;;;;;5062677;28;20561;-37
2021/08/04 04:23:01;;;;;;;6.38;5.57;;;24.40;66.10;;;;;;5074891;28;20036;-37
2021/08/04 04:25:28;;;;;;;6.22;5.63;;;24.40;66.10;;;;;;5082486;28;20033;-37
2021/08/04 04:27:54;;;;;;;6.50;5.20;;;24.40;66.00;;;;;;5082593;28;20032;-37
2021/08/04 04:30:20;;;;;;;6.25;5.57;;;24.40;66.00;;;;;;5082611;28;20032;-37
2021/08/04 04:32:46;;;;;;;6.35;5.32;;;24.40;66.10;;;;;;5082931;28;20028;-37
2021/08/04 04:35:12;;;;;;;6.35;5.15;;;24.40;66.10;;;;;;5082625;28;20035;-37
2021/08/04 04:37:39;;;;;;;5.83;4.93;;;24.40;66.30;;;;;;5082622;28;20036;-37
2021/08/04 04:40:05;;;;;;;6.10;5.50;;;24.40;66.40;;;;;;5068866;28;20024;-37
2021/08/04 04:42:32;;;;;;;6.22;5.55;;;24.40;66.40;;;;;;5082668;28;20261;-37
2021/08/04 04:44:58;;;;;;;6.70;6.00;;;24.40;66.40;;;;;;5082221;28;20028;-37
2021/08/04 04:47:24;;;;;;;6.63;5.93;;;24.40;66.30;;;;;;5082651;28;20016;-37
2021/08/04 04:49:50;;;;;;;6.88;5.60;;;24.30;66.20;;;;;;5081217;28;20641;-37
2021/08/04 04:52:16;;;;;;;6.38;5.78;;;24.30;66.20;;;;;;5073144;28;20052;-37
2021/08/04 04:54:42;;;;;;;6.95;5.95;;;24.30;66.30;;;;;;5062156;28;20029;-37
2021/08/04 04:57:08;;;;;;;6.55;5.85;;;24.30;66.30;;;;;;5062472;28;20036;-37
2021/08/04 04:59:34;;;;;;;6.63;5.93;;;24.30;66.20;;;;;;5062553;28;20032;-37
2021/08/04 05:02:01;;;;;;;8.90;6.13;;;24.30;66.20;;;;;;5062129;28;20052;-37
2021/08/04 05:04:27;;;;;;;6.57;5.97;;;24.30;66.20;;;;;;5062421;28;20037;-36
2021/08/04 05:06:53;;;;;;;6.55;5.78;;;24.30;66.20;;;;;;5060625;28;20029;-37
2021/08/04 05:09:19;;;;;;;6.47;5.80;;;24.30;66.50;;;;;;5061983;28;20058;-37
2021/08/04 05:11:45;;;;;;;6.63;5.93;;;24.30;66.40;;;;;;5062203;28;20055;-37
2021/08/04 05:14:11;;;;;;;6.97;6.00;;;24.30;66.20;;;;;;5062166;28;20082;-37
2021/08/04 05:16:37;;;;;;;7.10;5.60;;;24.30;66.20;;;;;;5061597;28;20028;-37
2021/08/04 05:19:03;;;;;;;6.55;5.47;;;24.30;66.10;;;;;;5062056;28;20033;-37
2021/08/04 05:21:30;;;;;;;6.97;5.80;;;24.30;66.00;;;;;;5061827;28;20061;-37
2021/08/04 05:23:56;;;;;;;6.55;5.50;;;24.30;66.00;;;;;;5081819;28;20264;-37
2021/08/04 05:26:23;;;;;;;6.38;5.70;;;24.30;66.10;;;;;;5081675;28;20029;-38
2021/08/04 05:28:51;;;;;;;6.65;5.95;;;24.30;66.10;;;;;;5081952;28;20035;-37
2021/08/04 05:31:17;;;;;;;6.70;5.50;;;24.30;66.20;;;;;;5082023;28;20040;-37
2021/08/04 05:33:44;;;;;;;6.72;6.07;;;24.30;66.30;;;;;;5082081;28;20048;-37
2021/08/04 05:36:10;;;;;;;7.40;6.18;;;24.30;66.20;;;;;;5081855;28;20024;-37
2021/08/04 05:38:36;;;;;;;6.35;5.68;;;24.20;66.30;;;;;;5079279;28;20040;-37
2021/08/04 05:41:03;;;;;;;6.50;5.53;;;24.20;66.10;;;;;;5065048;28;20135;-39
2021/08/04 05:43:30;;;;;;;6.32;5.68;;;24.20;66.20;;;;;;5065983;28;20037;-38
2021/08/04 05:45:56;;;;;;;6.65;5.82;;;24.20;66.30;;;;;;5065878;28;20125;-37
2021/08/04 05:48:22;;;;;;;6.93;6.22;;;24.20;66.10;;;;;;5065754;28;20060;-38
2021/08/04 05:50:48;;;;;;;6.53;5.82;;;24.20;66.00;;;;;;5065805;28;20021;-37
2021/08/04 05:53:15;;;;;;;6.63;5.93;;;24.20;65.90;;;;;;5080028;28;20047;-37
2021/08/04 05:55:41;;;;;;;6.93;5.70;;;24.20;66.00;;;;;;5085674;28;20025;-37
2021/08/04 05:58:07;;;;;;;6.85;5.70;;;24.20;65.80;;;;;;5082774;28;20021;-37
2021/08/04 06:00:33;;;;;;;6.45;5.72;;;24.20;65.80;;;;;;5076774;28;20049;-37
2021/08/04 06:03:00;;;;;;;8.13;6.33;;;24.20;65.90;;;;;;5045546;28;20049;-37
2021/08/04 06:05:26;;;;;;;6.40;5.80;;;24.20;65.90;;;;;;5045608;28;20037;-37
2021/08/04 06:07:52;;;;;;;7.22;6.05;;;24.20;65.90;;;;;;5045051;28;20039;-37
2021/08/04 06:10:18;;;;;;;6.82;6.13;;;24.20;65.90;;;;;;5045657;28;20025;-37
2021/08/04 06:12:44;;;;;;;6.67;6.00;;;24.10;65.90;;;;;;5045737;28;20033;-37
2021/08/04 06:15:11;;;;;;;6.90;6.18;;;24.10;66.00;;;;;;5045497;28;20746;-37
2021/08/04 06:17:37;;;;;;;7.07;6.25;;;24.10;66.00;;;;;;5045248;28;20022;-37
2021/08/04 06:20:04;;;;;;;6.45;5.85;;;24.10;66.10;;;;;;5045489;28;20607;-38
2021/08/04 06:22:30;;;;;;;7.32;5.72;;;24.10;66.00;;;;;;5061373;28;20044;-37
2021/08/04 06:24:57;;;;;;;7.47;6.68;;;24.10;65.90;;;;;;5085358;28;20028;-37
2021/08/04 06:27:23;;;;;;;9.40;5.97;;;24.10;65.90;;;;;;5085011;28;20024;-37
2021/08/04 06:29:49;;;;;;;7.35;6.30;;;24.10;65.90;;;;;;5085117;28;20606;-37
2021/08/04 06:32:15;;;;;;;7.03;6.28;;;24.10;65.90;;;;;;5084954;28;20032;-37
2021/08/04 06:34:42;;;;;;;7.78;6.80;;;24.10;66.00;;;;;;5076271;28;20029;-37
2021/08/04 06:37:08;;;;;;;6.57;5.88;;;24.10;65.90;;;;;;5064740;28;20029;-37
2021/08/04 06:39:34;;;;;;;6.85;6.15;;;24.10;65.90;;;;;;5064694;28;20092;-37
2021/08/04 06:42:01;;;;;;;6.97;6.05;;;24.10;66.00;;;;;;5065058;28;20039;-37
2021/08/04 06:44:28;;;;;;;6.55;5.93;;;24.10;65.90;;;;;;5064959;28;20037;-37
2021/08/04 06:46:58;;;;;;;6.65;6.05;;;24.10;65.90;;;;;;5064641;28;20033;-37
2021/08/04 06:49:24;;;;;;;7.13;6.43;;;24.10;65.90;;;;;;5064816;28;20028;-37
2021/08/04 06:51:50;;;;;;;7.30;6.53;;;24.10;65.90;;;;;;5068372;28;20025;-37
2021/08/04 06:54:16;;;;;;;6.70;5.88;;;24.10;65.90;;;;;;5084977;28;20029;-37
2021/08/04 06:56:42;;;;;;;7.93;6.15;;;24.00;65.90;;;;;;5084409;28;20024;-37
2021/08/04 06:59:08;;;;;;;7.93;5.90;;;24.00;66.00;;;;;;5084626;28;20032;-37
2021/08/04 07:01:35;;;;;;;7.07;6.32;;;24.00;65.90;;;;;;5084551;28;20024;-37
2021/08/04 07:04:01;;;;;;;8.32;6.72;;;24.00;66.00;;;;;;5084545;28;20039;-37
2021/08/04 07:06:27;;;;;;;6.95;6.25;;;24.00;66.00;;;;;;5084282;28;20550;-37
2021/08/04 07:08:53;;;;;;;7.32;6.30;;;24.00;66.00;;;;;;5078366;28;20157;-37
2021/08/04 07:11:22;;;;;;;7.05;6.35;;;24.00;66.00;;;;;;5063126;28;20129;-37
2021/08/04 07:13:49;;;;;;;6.70;5.95;;;24.00;66.00;;;;;;5064417;28;20086;-37
2021/08/04 07:16:19;;;;;;;6.95;5.82;;;24.00;66.00;;;;;;5062769;28;20028;-37
2021/08/04 07:18:45;;;;;;;7.00;5.55;;;24.00;66.00;;;;;;5064083;28;20482;-37
2021/08/04 07:21:12;;;;;;;8.32;6.43;;;24.00;65.90;;;;;;5064123;28;20130;-37
2021/08/04 07:23:39;;;;;;;6.75;5.82;;;24.00;66.00;;;;;;5081706;28;20152;-37
2021/08/04 07:26:05;;;;;;;;;;;24.00;66.00;;;;;;5084592;28;20040;-37
2021/08/04 07:28:32;;;;;;;6.68;5.90;;;24.00;66.00;;;;;;5083985;28;19908;-39
2021/08/04 07:30:58;;;;;;;7.63;6.30;;;24.00;66.10;;;;;;5083854;28;20067;-37
2021/08/04 07:33:24;;;;;;;7.20;6.28;;;24.00;66.00;;;;;;5084230;28;20678;-37
2021/08/04 07:35:50;;;;;;;8.15;6.00;;;24.00;66.10;;;;;;5084052;28;20116;-37
2021/08/04 07:38:16;;;;;;;7.45;6.68;;;24.00;66.10;;;;;;5083500;28;20029;-37
2021/08/04 07:40:42;;;;;;;7.60;5.88;;;24.00;66.10;;;;;;5062663;28;20021;-37
2021/08/04 07:43:09;;;;;;;8.27;5.82;;;23.90;66.10;;;;;;5063784;28;20037;-37
2021/08/04 07:45:35;;;;;;;6.78;6.07;;;23.90;66.10;;;;;;5063476;28;20057;-37
2021/08/04 07:48:01;;;;;;;6.88;6.18;;;23.90;66.10;;;;;;5063537;28;20017;-37
2021/08/04 07:50:27;;;;;;;6.50;5.78;;;23.90;66.10;;;;;;5063780;28;20039;-37
2021/08/04 07:52:53;;;;;;;7.07;6.38;;;23.90;66.10;;;;;;5074882;28;20082;-37
2021/08/04 07:55:19;;;;;;;7.10;6.40;;;23.90;66.10;;;;;;5083537;28;20032;-37
2021/08/04 07:57:46;;;;;;;7.00;6.30;;;23.90;66.10;;;;;;5083355;28;20017;-37
2021/08/04 08:00:12;;;;;;;7.03;6.20;;;23.90;66.10;;;;;;5083363;28;20028;-38
2021/08/04 08:02:38;;;;;;;6.97;6.28;;;23.90;66.10;;;;;;5083139;28;20086;-37
2021/08/04 08:05:05;;;;;;;7.40;6.63;;;23.90;66.10;;;;;;5083308;28;20503;-37
2021/08/04 08:07:31;;;;;;;6.80;5.93;;;23.90;66.10;;;;;;5078786;28;20025;-37
2021/08/04 08:09:58;;;;;;;7.10;6.07;;;23.90;66.10;;;;;;5063265;28;20061;-37
2021/08/04 08:12:24;;;;;;;6.88;6.00;;;23.90;66.10;;;;;;5063093;28;20032;-37
2021/08/04 08:14:50;;;;;;;7.22;6.53;;;23.90;66.10;;;;;;5063330;28;20037;-37
2021/08/04 08:17:16;;;;;;;7.68;6.63;;;23.90;66.20;;;;;;5061735;28;20527;-37
2021/08/04 08:19:42;;;;;;;7.25;6.38;;;23.90;66.20;;;;;;5062866;28;20040;-37
2021/08/04 08:22:08;;;;;;;7.28;6.13;;;23.90;66.20;;;;;;5067738;28;20048;-37
2021/08/04 08:24:34;;;;;;;6.43;5.82;;;23.90;66.20;;;;;;5083054;28;20036;-37
2021/08/04 08:27:01;;;;;;;7.20;6.30;;;23.90;66.30;;;;;;5081718;28;20021;-37
2021/08/04 08:29:27;;;;;;;6.97;6.28;;;23.80;66.20;;;;;;5079933;28;20079;-37
2021/08/04 08:31:53;;;;;;;7.47;6.57;;;23.80;66.20;;;;;;5082595;28;20024;-37
2021/08/04 08:34:19;;;;;;;6.75;5.97;;;23.80;66.20;;;;;;5082886;28;20035;-37
2021/08/04 08:36:45;;;;;;;7.60;6.68;;;23.80;66.30;;;;;;5082852;28;20052;-37
2021/08/04 08:39:11;;;;;;;6.82;6.13;;;23.80;66.20;;;;;;5075238;28;20061;-37
2021/08/04 08:41:38;;;;;;;6.97;6.28;;;23.80;66.20;;;;;;5061162;28;20028;-37
2021/08/04 08:44:04;;;;;;;7.32;5.90;;;23.80;66.20;;;;;;5062562;28;20037;-37
2021/08/04 08:46:31;;;;;;;7.25;6.47;;;23.80;66.30;;;;;;5065071;28;20512;-37
2021/08/04 08:48:58;;;;;;;7.03;6.32;;;23.80;66.30;;;;;;5061275;28;20040;-37
2021/08/04 08:51:25;;;;;;;8.00;6.18;;;23.80;66.20;;;;;;5062674;28;20032;-37
2021/08/04 08:53:51;;;;;;;8.23;6.18;;;23.80;66.30;;;;;;5062398;28;20031;-37
2021/08/04 08:56:18;;;;;;;7.15;6.38;;;23.80;66.30;;;;;;5061252;28;20044;-37
2021/08/04 08:58:45;;;;;;;6.80;5.60;;;23.80;66.40;;;;;;5062680;28;20033;-37
2021/08/04 09:01:11;;;;;;;;;;;23.80;66.40;;;;;;5061630;28;20036;-37
2021/08/04 09:03:37;;;;;;;6.63;5.75;;;23.80;66.40;;;;;;5062232;28;19912;-37
2021/08/04 09:06:05;;;;;;;6.95;6.28;;;23.80;66.40;;;;;;5062471;28;20025;-37
2021/08/04 09:08:34;;;;;;;;;;;23.70;66.90;;;;;;5060717;28;20036;-37
2021/08/04 09:11:19;;;;;;;6.97;6.00;;;23.70;66.40;;;;;;5042491;28;19905;-37
2021/08/04 09:13:46;;;;;;;6.35;5.75;;;23.70;66.40;;;;;;5040802;28;20023;-37
2021/08/04 09:16:16;;;;;;;7.05;6.15;;;23.70;66.40;;;;;;5045631;28;20022;-37
2021/08/04 09:18:47;;;;;;;8.30;6.90;;;23.70;66.40;;;;;;5046671;28;20045;-37
2021/08/04 09:21:16;;;;;;;8.90;6.35;;;23.70;66.40;;;;;;5046434;28;20636;-37
2021/08/04 09:23:46;;;;;;;7.93;6.38;;;23.70;66.50;;;;;;5062577;28;20509;-37
2021/08/04 09:26:16;;;;;;;6.25;5.65;;;23.70;66.50;;;;;;5066392;28;20033;-37
2021/08/04 09:29:02;;;;;;;7.38;6.40;;;23.70;66.50;;;;;;5066230;28;20033;-37
2021/08/04 09:31:40;;;;;;;7.57;6.78;;;23.70;66.50;;;;;;5066252;28;20033;-37
2021/08/04 09:34:37;;;;;;;8.27;6.57;;;23.70;66.50;;;;;;5066051;28;20076;-37
2021/08/04 09:37:07;;;;;;;6.53;5.68;;;23.70;66.50;;;;;;5064072;28;20037;-37
2021/08/04 09:39:33;;;;;;;6.75;6.05;;;23.70;67.30;;;;;;5055522;28;20022;-37
2021/08/04 09:42:01;;;;;;;7.15;6.45;;;23.70;66.60;;;;;;5046177;28;20036;-37
2021/08/04 09:44:27;;;;;;;6.88;6.22;;;23.70;66.60;;;;;;5045819;28;20034;-37
2021/08/04 09:47:11;;;;;;;8.32;6.63;;;23.70;66.60;;;;;;5046165;28;20037;-37
2021/08/04 09:49:38;;;;;;;7.30;6.60;;;23.70;66.60;;;;;;5045864;28;20489;-37
2021/08/04 09:52:09;;;;;;;6.72;6.03;;;23.70;66.70;;;;;;5050446;28;20055;-37
2021/08/04 09:54:39;;;;;;;6.93;6.22;;;23.70;66.70;;;;;;5065567;28;20025;-37
2021/08/04 09:57:05;;;;;;;7.38;6.13;;;23.70;66.70;;;;;;5065778;28;20117;-37
2021/08/04 09:59:32;;;;;;;7.47;6.78;;;23.70;67.40;;;;;;5065884;28;20033;-39
2021/08/04 10:01:59;;;;;;;6.65;5.97;;;23.60;66.70;;;;;;5065698;28;20029;-37
2021/08/04 10:04:26;;;;;;;7.30;6.35;;;23.70;66.70;;;;;;5065458;28;20059;-37
2021/08/04 10:07:12;;;;;;;7.03;6.33;;;23.60;66.70;;;;;;5065665;28;20108;-37
2021/08/04 10:09:39;;;;;;;7.15;6.45;;;23.60;66.80;;;;;;5053121;28;20037;-37
2021/08/04 10:12:07;;;;;;;7.73;6.63;;;23.60;66.70;;;;;;5049154;28;20079;-37
2021/08/04 10:14:34;;;;;;;7.00;6.32;;;23.60;66.80;;;;;;5065360;28;20074;-37
2021/08/04 10:17:00;;;;;;;7.85;6.18;;;23.60;66.70;;;;;;5064052;28;20029;-37
2021/08/04 10:19:26;;;;;;;7.38;6.32;;;23.60;66.70;;;;;;5064035;28;20041;-44
2021/08/04 10:21:53;;;;;;;6.82;6.03;;;23.60;66.80;;;;;;5065212;28;20702;-37
2021/08/04 10:24:20;;;;;;;6.97;6.28;;;23.60;66.80;;;;;;5064888;28;20044;-36
2021/08/04 10:26:46;;;;;;;8.10;7.28;;;23.60;66.80;;;;;;5064747;28;20049;-37
2021/08/04 10:29:12;;;;;;;7.45;6.68;;;23.60;66.80;;;;;;5065403;28;20033;-37
2021/08/04 10:31:40;;;;;;;7.53;6.13;;;23.60;66.90;;;;;;5065134;28;20028;-37
2021/08/04 10:34:06;;;;;;;7.78;6.97;;;23.60;66.90;;;;;;5068284;28;20053;-37
2021/08/04 10:36:34;;;;;;;6.70;6.00;;;23.60;66.90;;;;;;5063739;28;20132;-37
2021/08/04 10:39:08;;;;;;;6.68;5.93;;;23.60;66.90;;;;;;5063350;28;20032;-37
2021/08/04 10:41:34;;;;;;;7.30;6.60;;;23.60;66.90;;;;;;5064933;28;20040;-37
2021/08/04 10:44:06;;;;;;;7.10;6.35;;;23.60;66.90;;;;;;5083200;28;20043;-37
2021/08/04 10:46:32;;;;;;;7.38;5.97;;;23.60;67.60;;;;;;5084842;28;20040;-37
2021/08/04 10:49:04;;;;;;;8.23;6.78;;;23.60;66.90;;;;;;5085047;28;20036;-37
2021/08/04 10:51:43;;;;;;;6.82;6.10;;;23.60;67.00;;;;;;5084660;28;20025;-37
2021/08/04 10:54:22;;;;;;;7.10;5.95;;;23.50;66.90;;;;;;5043248;28;20022;-37
2021/08/04 10:57:08;;;;;;;6.93;6.22;;;23.50;66.90;;;;;;5044831;28;20033;-37
2021/08/04 10:59:35;;;;;;;6.60;5.93;;;23.50;67.00;;;;;;5044345;28;20047;-37
2021/08/04 11:02:01;;;;;;;;;;;23.60;67.00;;;;;;5045024;28;20059;-37
2021/08/04 11:04:32;;;;;;;7.35;6.65;;;23.50;67.00;;;;;;5044340;28;19913;-37
2021/08/04 11:07:15;;;;;;;7.03;6.32;;;23.60;67.00;;;;;;5044434;28;20034;-37
2021/08/04 11:09:42;;;;;;;6.47;5.60;;;23.50;67.00;;;;;;5055958;28;20064;-37
2021/08/04 11:12:16;;;;;;;6.88;6.18;;;23.50;67.10;;;;;;5064650;28;20096;-37
2021/08/04 11:14:59;;;;;;;7.03;6.32;;;23.50;67.10;;;;;;5062979;28;20099;-37
2021/08/04 11:17:26;;;;;;;7.38;6.30;;;23.50;67.00;;;;;;5064383;28;20025;-37
2021/08/04 11:20:08;;;;;;;7.95;6.53;;;23.50;67.20;;;;;;5064320;28;20028;-37
2021/08/04 11:22:40;;;;;;;7.35;6.60;;;23.50;67.10;;;;;;5072568;28;20052;-37
2021/08/04 11:25:26;;;;;;;6.82;6.13;;;23.50;67.10;;;;;;5083829;28;20025;-37
2021/08/04 11:27:53;;;;;;;7.07;6.38;;;23.50;67.10;;;;;;5084138;28;20032;-37
2021/08/04 11:30:37;;;;;;;7.20;6.10;;;23.50;67.20;;;;;;5084072;28;20021;-37
2021/08/04 11:33:19;;;;;;;8.35;6.25;;;23.50;67.20;;;;;;5084042;28;20063;-37
2021/08/04 11:35:45;;;;;;;7.15;6.45;;;23.50;67.20;;;;;;5084027;28;20400;-37
2021/08/04 11:38:12;;;;;;;6.88;6.18;;;23.50;67.20;;;;;;5082873;28;20131;-36
2021/08/04 11:40:38;;;;;;;8.20;6.53;;;23.50;67.30;;;;;;5064322;28;20029;-37
2021/08/04 11:43:04;;;;;;;8.13;6.88;;;23.50;67.30;;;;;;5063877;28;20040;-37
2021/08/04 11:45:30;;;;;;;7.55;6.63;;;23.50;67.30;;;;;;5063674;28;20035;-37
2021/08/04 11:47:56;;;;;;;7.18;6.47;;;23.50;67.30;;;;;;5063576;28;20052;-37
2021/08/04 11:50:22;;;;;;;6.88;6.18;;;23.50;67.30;;;;;;5063786;28;20683;-37
2021/08/04 11:52:49;;;;;;;6.90;6.18;;;23.50;67.30;;;;;;5074085;28;20039;-37
2021/08/04 11:55:15;;;;;;;6.97;6.28;;;23.50;67.30;;;;;;5082032;28;20039;-38
2021/08/04 11:57:43;;;;;;;6.40;5.80;;;23.50;67.40;;;;;;5083605;28;20054;-37
2021/08/04 12:00:11;;;;;;;7.18;6.47;;;23.50;67.40;;;;;;5083372;28;20055;-37
2021/08/04 12:02:38;;;;;;;7.32;6.45;;;23.50;67.40;;;;;;5083121;28;20089;-37
2021/08/04 12:05:05;;;;;;;6.57;5.97;;;23.50;67.40;;;;;;5083160;28;20032;-37
2021/08/04 12:07:33;;;;;;;6.90;6.20;;;23.50;67.40;;;;;;5081727;28;20029;-37
2021/08/04 12:10:03;;;;;;;6.85;6.15;;;23.50;67.40;;;;;;5069214;28;20029;-37
2021/08/04 12:12:35;;;;;;;7.28;6.47;;;23.50;67.40;;;;;;5065191;28;20025;-37
2021/08/04 12:15:14;;;;;;;7.03;6.20;;;23.50;67.40;;;;;;5081707;28;20028;-36
2021/08/04 12:17:41;;;;;;;7.53;6.50;;;23.50;67.50;;;;;;5082899;28;20028;-37
2021/08/04 12:20:14;;;;;;;7.13;6.03;;;23.50;67.50;;;;;;5082997;28;20032;-36
2021/08/04 12:22:40;;;;;;;6.85;6.15;;;23.50;67.50;;;;;;5073490;28;20128;-36
2021/08/04 12:25:07;;;;;;;7.32;6.63;;;23.50;67.60;;;;;;5062746;28;20032;-37
2021/08/04 12:27:39;;;;;;;7.00;6.28;;;23.50;67.60;;;;;;5062913;28;20087;-38
2021/08/04 12:30:31;;;;;;;7.22;6.53;;;23.50;67.70;;;;;;5062881;28;20060;-36
2021/08/04 12:33:13;;;;;;;7.30;6.60;;;23.50;67.70;;;;;;5062726;28;20112;-37
2021/08/04 12:35:50;;;;;;;7.10;6.40;;;23.50;67.60;;;;;;5062543;28;20041;-37
2021/08/04 12:38:18;;;;;;;6.93;6.23;;;23.50;67.70;;;;;;5063403;28;20021;-36
2021/08/04 12:40:45;;;;;;;7.85;6.65;;;23.50;67.70;;;;;;5062357;28;20021;-37
2021/08/04 12:43:12;;;;;;;8.07;6.55;;;23.50;67.60;;;;;;5070711;28;20033;-37
2021/08/04 12:45:54;;;;;;;7.07;6.38;;;23.50;67.60;;;;;;5062643;28;20056;-37
2021/08/04 12:48:21;;;;;;;7.15;6.45;;;23.50;67.70;;;;;;5062456;28;20088;-37
2021/08/04 12:50:54;;;;;;;;;;;23.50;67.70;;;;;;5063112;28;20048;-36
2021/08/04 12:53:22;;;;;;;7.00;6.30;;;23.50;67.60;;;;;;5077568;28;20531;-37